mardi 11 février 2014

ALERTE SPOTTING 11/02/14

142 D-AMGL WDL
   AF383V/AF7330   06h20
  AF7335/7302   10h00/10h45
 arv  AF7307   13H55

SWM F-GRNT
   ARL421   06h20/10h00



 Manque les prévisions/immats Air Europa / Flybe / AZ / TAP / BA / certains Air Algérie
*** Heures en Local Time / prévisions soumises
 à modifications de dernières minutes ***

le TAF de la journée



METAR: LFPO 110330Z 25008KT CAVOK 04/02 Q1007 NOSIG=
TAF LONG: LFPO 102300Z 1100/1206 24010KT 9999 SCT030 BECMG 1111/1113
19015G25KT BECMG 1113/1115 -RA BKN020 TEMPO 1115/1119 20020G35KT 4000
RA BKN012 
 
 Les logs des jours précédents :
 http://www.airkalo.com/ORLYAVIATION/Logdumois.html